createdAt,value
2022-09-11T00:03:03.153Z,1007.00
2022-09-11T00:08:07.291Z,1007.00
2022-09-11T00:13:11.450Z,1007.00
2022-09-11T00:18:15.622Z,1007.03
2022-09-11T00:23:19.774Z,1007.07
2022-09-11T00:28:23.929Z,1007.07
2022-09-11T00:33:28.101Z,1007.09
2022-09-11T00:38:32.248Z,1007.09
2022-09-11T00:43:36.402Z,1007.15
2022-09-11T00:48:40.591Z,1007.22
2022-09-11T00:53:42.978Z,1007.25
2022-09-11T00:58:46.997Z,1007.21
2022-09-11T01:03:49.249Z,1007.24
2022-09-11T01:08:53.442Z,1007.39
2022-09-11T01:13:55.731Z,1007.34
2022-09-11T01:18:59.856Z,1007.44
2022-09-11T01:24:04.040Z,1007.49
2022-09-11T01:29:08.207Z,1007.50
2022-09-11T01:34:12.340Z,1007.52
2022-09-11T01:39:16.514Z,1007.65
2022-09-11T01:44:20.660Z,1007.63
2022-09-11T01:49:24.808Z,1007.67
2022-09-11T01:54:28.979Z,1007.73
2022-09-11T01:59:33.175Z,1007.81
2022-09-11T02:04:37.318Z,1007.82
2022-09-11T02:09:41.448Z,1007.77
2022-09-11T02:14:45.632Z,1007.75
2022-09-11T02:19:49.814Z,1007.84
2022-09-11T02:24:53.973Z,1007.89
2022-09-11T02:29:58.128Z,1007.83
2022-09-11T02:35:02.267Z,1007.86
2022-09-11T02:40:06.500Z,1007.91
2022-09-11T02:45:10.601Z,1007.87
2022-09-11T02:50:14.777Z,1007.92
2022-09-11T02:55:18.908Z,1007.92
2022-09-11T03:00:21.193Z,1007.97
2022-09-11T03:05:25.345Z,1007.98
2022-09-11T03:10:27.606Z,1007.96
2022-09-11T03:15:31.774Z,1007.99
2022-09-11T03:20:35.942Z,1008.01
2022-09-11T03:25:40.091Z,1007.99
2022-09-11T03:30:44.243Z,1008.14
2022-09-11T03:35:48.407Z,1008.06
2022-09-11T03:40:52.568Z,1008.17
2022-09-11T03:45:56.782Z,1008.26
2022-09-11T03:51:00.858Z,1008.20
2022-09-11T03:56:05.072Z,1008.22
2022-09-11T04:01:09.719Z,1008.26
2022-09-11T04:06:13.355Z,1008.33
2022-09-11T04:11:17.972Z,1008.37
2022-09-11T04:16:21.764Z,1008.41
2022-09-11T04:21:25.820Z,1008.47
2022-09-11T04:26:30.010Z,1008.46
2022-09-11T04:31:34.278Z,1008.49
2022-09-11T04:36:38.358Z,1008.50
2022-09-11T04:41:42.488Z,1008.53
2022-09-11T04:46:46.653Z,1008.66
2022-09-11T04:51:50.795Z,1008.66
2022-09-11T04:56:53.089Z,1008.57
2022-09-11T05:01:57.290Z,1008.55
2022-09-11T05:06:59.523Z,1008.58
2022-09-11T05:12:03.693Z,1008.71
2022-09-11T05:17:07.821Z,1008.70
2022-09-11T05:22:12.020Z,1008.83
2022-09-11T05:27:16.162Z,1008.81
2022-09-11T05:32:20.315Z,1008.88
2022-09-11T05:37:24.463Z,1009.01
2022-09-11T05:42:28.677Z,1009.02
2022-09-11T05:47:32.819Z,1009.04
2022-09-11T05:52:36.967Z,1009.16
2022-09-11T05:57:41.111Z,1009.18
2022-09-11T06:02:45.293Z,1009.24
2022-09-11T06:07:49.434Z,1009.29
2022-09-11T06:12:53.596Z,1009.32
2022-09-11T06:17:57.785Z,1009.40
2022-09-11T06:23:04.115Z,1009.39
2022-09-11T06:28:06.101Z,1009.47
2022-09-11T06:33:10.233Z,1009.53
2022-09-11T06:38:14.414Z,1009.50
2022-09-11T06:43:18.532Z,1009.56
2022-09-11T06:48:22.712Z,1009.59
2022-09-11T06:53:25.028Z,1009.68
2022-09-11T06:58:29.175Z,1009.60
2022-09-11T07:03:33.371Z,1009.66
2022-09-11T07:08:35.572Z,1009.74
2022-09-11T07:13:39.904Z,1009.68
2022-09-11T07:18:43.881Z,1009.69
2022-09-11T07:23:48.091Z,1009.67
2022-09-11T07:28:52.238Z,1009.65
2022-09-11T07:33:56.378Z,1009.69
2022-09-11T07:39:00.516Z,1009.75
2022-09-11T07:44:04.727Z,1009.80
2022-09-11T07:49:08.868Z,1009.82
2022-09-11T07:59:17.177Z,1009.90
2022-09-11T08:04:21.381Z,1009.96
2022-09-11T08:09:25.527Z,1010.01
2022-09-11T08:14:29.675Z,1009.98
2022-09-11T08:19:33.822Z,1010.10
2022-09-11T08:24:37.998Z,1010.14
2022-09-11T08:29:42.145Z,1010.09
2022-09-11T08:34:46.329Z,1010.18
2022-09-11T08:39:50.556Z,1010.21
2022-09-11T08:44:54.645Z,1010.37
2022-09-11T08:49:58.786Z,1010.42
2022-09-11T08:55:02.930Z,1010.43
2022-09-11T09:00:05.222Z,1010.52
2022-09-11T09:05:09.352Z,1010.56
2022-09-11T09:10:11.615Z,1010.65
2022-09-11T09:15:15.813Z,1010.74
2022-09-11T09:20:19.968Z,1010.59
2022-09-11T09:25:24.156Z,1010.65
2022-09-11T09:30:28.277Z,1010.63
2022-09-11T09:35:32.433Z,1010.55
2022-09-11T09:40:36.599Z,1010.65
2022-09-11T09:45:40.819Z,1010.55
2022-09-11T09:50:44.905Z,1010.45
2022-09-11T09:55:49.062Z,1010.54
2022-09-11T10:00:53.230Z,1010.51
2022-09-11T10:05:57.409Z,1010.47
2022-09-11T10:11:01.561Z,1010.42
2022-09-11T10:16:05.800Z,1010.48
2022-09-11T10:21:09.838Z,1010.34
2022-09-11T10:26:14.024Z,1010.37
2022-09-11T10:31:18.206Z,1010.34
2022-09-11T10:36:22.363Z,1010.34
2022-09-11T10:41:26.479Z,1010.42
2022-09-11T10:46:30.634Z,1010.35
2022-09-11T10:51:34.805Z,1010.44
2022-09-11T10:56:37.082Z,1010.41
2022-09-11T11:01:41.389Z,1010.37
2022-09-11T11:06:43.535Z,1010.37
2022-09-11T11:11:47.677Z,1010.44
2022-09-11T11:16:51.865Z,1010.44
2022-09-11T11:21:55.981Z,1010.43
2022-09-11T11:27:00.183Z,1010.49
2022-09-11T11:32:04.320Z,1010.48
2022-09-11T11:37:08.463Z,1010.41
2022-09-11T11:42:12.618Z,1010.50
2022-09-11T11:47:16.804Z,1010.50
2022-09-11T11:52:20.953Z,1010.55
2022-09-11T11:57:25.142Z,1010.52
2022-09-11T12:02:29.262Z,1010.57
2022-09-11T12:07:33.463Z,1010.61
2022-09-11T12:12:37.596Z,1010.55
2022-09-11T12:17:41.754Z,1010.61
2022-09-11T12:22:45.927Z,1010.65
2022-09-11T12:27:50.057Z,1010.73
2022-09-11T12:32:54.246Z,1010.64
2022-09-11T12:37:58.386Z,1010.63
2022-09-11T12:43:05.361Z,1010.69
2022-09-11T12:48:06.711Z,1010.65
2022-09-11T12:53:08.980Z,1010.53
2022-09-11T12:58:13.128Z,1010.51
2022-09-11T13:03:15.385Z,1010.51
2022-09-11T13:08:19.553Z,1010.51
2022-09-11T13:13:23.740Z,1010.42
2022-09-11T13:18:27.872Z,1010.41
2022-09-11T13:23:32.054Z,1010.34
2022-09-11T13:28:36.210Z,1010.31
2022-09-11T13:33:40.416Z,1010.11
2022-09-11T13:38:44.519Z,1010.12
2022-09-11T13:43:48.689Z,1010.10
2022-09-11T13:48:54.286Z,1010.08
2022-09-11T13:53:56.969Z,1010.00
2022-09-11T13:59:02.926Z,1009.96
2022-09-11T14:04:05.283Z,1009.97
2022-09-11T14:09:09.482Z,1009.84
2022-09-11T14:14:13.647Z,1009.70
2022-09-11T14:19:17.763Z,1009.69
2022-09-11T14:24:21.955Z,1009.70
2022-09-11T14:29:26.083Z,1009.53
2022-09-11T14:34:30.256Z,1009.56
2022-09-11T14:39:34.403Z,1009.58
2022-09-11T14:44:38.798Z,1009.53
2022-09-11T14:49:40.862Z,1009.52
2022-09-11T14:54:45.023Z,1009.52
2022-09-11T14:59:47.306Z,1009.45
2022-09-11T15:04:51.442Z,1009.45
2022-09-11T15:09:55.632Z,1009.53
2022-09-11T15:15:00.004Z,1009.42
2022-09-11T15:20:03.950Z,1009.33
2022-09-11T15:25:08.057Z,1009.28
2022-09-11T15:30:12.242Z,1009.09
2022-09-11T15:35:16.413Z,1009.03
2022-09-11T15:40:20.606Z,1008.97
2022-09-11T15:55:33.132Z,1009.05
2022-09-11T16:00:37.301Z,1008.92
2022-09-11T16:05:39.453Z,1008.80
2022-09-11T16:10:50.615Z,1008.77
2022-09-11T16:16:01.844Z,1008.75
2022-09-11T16:21:12.984Z,1008.81
2022-09-11T16:26:24.117Z,1008.74
2022-09-11T16:31:35.353Z,1008.78
2022-09-11T16:36:46.467Z,1008.70
2022-09-11T16:41:48.710Z,1008.73
2022-09-11T16:46:52.857Z,1008.65
2022-09-11T16:51:57.043Z,1008.62
2022-09-11T16:57:01.165Z,1008.48
2022-09-11T17:02:05.480Z,1008.47
2022-09-11T17:07:09.496Z,1008.44
2022-09-11T17:12:13.674Z,1008.52
2022-09-11T17:17:17.799Z,1008.54
2022-09-11T17:22:21.984Z,1008.57
2022-09-11T17:27:26.140Z,1008.64
2022-09-11T17:32:30.314Z,1008.60
2022-09-11T17:37:34.445Z,1008.67
2022-09-11T17:42:38.651Z,1008.69
2022-09-11T17:47:42.787Z,1008.71
2022-09-11T17:52:46.925Z,1008.78
2022-09-11T18:07:59.426Z,1008.83
2022-09-11T18:13:01.687Z,1008.85
2022-09-11T18:18:14.991Z,1008.92
2022-09-11T18:23:25.087Z,1008.92
2022-09-11T18:28:35.197Z,1008.95
2022-09-11T18:33:46.334Z,1008.96
2022-09-11T18:38:57.499Z,1009.11
2022-09-11T18:44:08.690Z,1009.11
2022-09-11T18:49:17.996Z,1008.98
2022-09-11T18:54:22.155Z,1009.03
2022-09-11T18:59:26.292Z,1009.00
2022-09-11T19:04:30.423Z,1008.98
2022-09-11T19:09:34.588Z,1008.91
2022-09-11T19:14:38.770Z,1008.97
2022-09-11T19:19:42.926Z,1008.93
2022-09-11T19:24:47.078Z,1009.03
2022-09-11T19:29:51.268Z,1009.01
2022-09-11T19:34:55.406Z,1009.10
2022-09-11T19:40:00.365Z,1009.13
2022-09-11T19:45:03.751Z,1009.18
2022-09-11T19:50:07.896Z,1009.19
2022-09-11T19:55:12.041Z,1009.22
2022-09-11T20:00:16.181Z,1009.13
2022-09-11T20:05:20.346Z,1009.20
2022-09-11T20:10:24.575Z,1009.30
2022-09-11T20:15:28.712Z,1009.31
2022-09-11T20:20:32.871Z,1009.31
2022-09-11T20:25:37.030Z,1009.34
2022-09-11T20:30:41.186Z,1009.37
2022-09-11T20:35:43.488Z,1009.27
2022-09-11T20:40:47.629Z,1009.28
2022-09-11T20:45:49.848Z,1009.22
2022-09-11T20:50:54.028Z,1009.10
2022-09-11T20:55:58.160Z,1009.08
2022-09-11T21:01:02.441Z,1009.12
2022-09-11T21:06:06.511Z,1009.09
2022-09-11T21:11:10.646Z,1008.99
2022-09-11T21:16:14.884Z,1009.12
2022-09-11T21:21:18.970Z,1009.04
2022-09-11T21:26:23.165Z,1009.09
2022-09-11T21:31:27.324Z,1008.95
2022-09-11T21:36:31.558Z,1008.92
2022-09-11T21:41:35.663Z,1008.90
2022-09-11T21:46:39.823Z,1008.85
2022-09-11T21:51:43.946Z,1008.83
2022-09-11T21:56:48.111Z,1008.84
2022-09-11T22:01:52.320Z,1008.95
2022-09-11T22:06:56.460Z,1008.94
2022-09-11T22:12:00.601Z,1009.01
2022-09-11T22:17:04.750Z,1008.98
2022-09-11T22:22:08.890Z,1008.99
2022-09-11T22:27:13.062Z,1009.03
2022-09-11T22:32:15.326Z,1008.94
2022-09-11T22:37:19.495Z,1008.93
2022-09-11T22:42:23.646Z,1008.98
2022-09-11T22:47:27.821Z,1008.96
2022-09-11T22:52:31.990Z,1008.97
2022-09-11T22:57:36.116Z,1008.90
2022-09-11T23:02:40.387Z,1008.96
2022-09-11T23:07:44.484Z,1008.93
2022-09-11T23:12:48.638Z,1008.89
2022-09-11T23:17:52.771Z,1008.97
2022-09-11T23:28:01.094Z,1008.74
2022-09-11T23:33:05.275Z,1008.67
2022-09-11T23:38:09.550Z,1008.78
2022-09-11T23:43:13.606Z,1008.74
2022-09-11T23:48:17.791Z,1008.73
2022-09-11T23:53:22.740Z,1008.71
2022-09-11T23:58:26.068Z,1008.64
